x

East Santa Barbara - 12nm Southwest Of Santa Barbara, Ca (46053) Wave Buoy

4:50pm - Mon 23rd Oct 2017 All times are PDT. -7 hours from GMT.

  • Sig Wave height 4.6ft
  • Swell Direction
  • Peak Period 13s
  • Average Period 8s
  • Wind
    9mph, 11mph gusts
  • Sea Temp 63°f
  • Air Temp 69°f
  • Sea Pressure 1017mb
  • East Santa Barbara  - 12nm Southwest Of Santa Barbara, Ca
  • East Santa Barbara  - 12nm Southwest Of Santa Barbara, Ca

More Historic Weather Station data

Upgrade to MSW Pro to gain access to the past 30 days of data for over 8000 Wavebouys and Weather Stations around the globe.

Join

Comparision Forecast

View Surf forecast
   
Mon 10/23 4:50pm 4.5ft 13s 8s 9 11 mph 1017mb 63f 69f
4:40pm  -   -   -  9 11 mph 1017mb 63f 71f
4:30pm  -   -   -  9 11 mph 1017mb - 71f
4:20pm  -   -   -  4 9 mph 1017mb 63f 71f
4:10pm  -   -   -  9 13 mph 1017mb 63f 73f
4:00pm  -   -   -  11 13 mph 1017mb 62f 73f
3:50pm 5ft 12s 9s 9 11 mph 1016.9mb 62f 72f
3:40pm  -   -   -  9 11 mph 1017mb 63f 71f
3:30pm  -   -   -  9 11 mph 1017mb - 71f
3:20pm  -   -   -  7 9 mph 1017mb 62f 71f
3:10pm  -   -   -  9 9 mph 1017.2mb 63f 71f
3:00pm  -   -   -  9 9 mph 1017.2mb 63f 71f
2:50pm 4.5ft 13s 9s 9 11 mph 1017.3mb - 70f
2:40pm 4.5ft  -  9s 9 11 mph 1017.3mb 63f 70f
2:30pm  -   -   -  7 9 mph 1017.3mb 63f 70f
2:20pm  -   -   -  7 9 mph 1017.4mb 62f 71f
2:10pm  -   -   -  4 7 mph 1017.5mb 62f 71f
2:00pm  -   -   -  7 7 mph 1017.6mb 63f 71f
1:50pm 4.5ft 13s 9s 7 9 mph 1017.8mb 63f 72f
1:40pm 4.5ft  -  9s 4 7 mph 1017.9mb 63f 72f
1:30pm  -   -   -  4 7 mph 1018mb 63f 73f
1:20pm  -   -   -  7 9 mph 1018.2mb 63f 74f
1:10pm  -   -   -  4 7 mph 1018.2mb 63f 74f
1:00pm  -   -   -  2 7 mph 1018.5mb 64f 72f
12:50pm 5.5ft 12s 9s 4 9 mph 1018.4mb 62f 71f
12:40pm  -   -   -  7 11 mph 1018.6mb 62f 69f
12:30pm  -   -   -  4 9 mph 1019.1mb 62f 68f
12:20pm  -   -   -  4 9 mph 1019.1mb 63f 68f
12:10pm  -   -   -  4 7 mph 1019.2mb 62f 68f
12:00pm  -   -   -  4 7 mph 1019.5mb 63f 68f
11:50am 5ft 13s 9s 4 7 mph 1019.5mb 63f 67f
11:40am  -   -   -  4 7 mph 1019.6mb 63f 67f
11:30am  -   -   -  4 7 mph 1019.5mb 62f 67f
11:20am  -   -   -  4 7 mph 1019.7mb 62f 67f
11:10am  -   -   -  4 7 mph 1019.7mb 62f 67f
11:00am  -   -   -  4 7 mph 1019.6mb 63f 67f
10:50am 5ft 13s 8s 2 7 mph 1019.6mb 63f 68f
10:40am  -   -   -   -  2 mph 1019.7mb 63f 69f
10:30am  -   -   -   -  2 mph 1019.6mb 63f 69f
10:20am  -   -   -   -  2 mph 1019.7mb 62f 68f
10:10am  -   -   -  2 4 mph 1019.7mb 62f 67f
10:00am  -   -   -  2 4 mph 1019.7mb 62f 67f
9:50am 5ft 12s 8s 2 4 mph 1019.6mb 62f 68f
9:40am 5ft  -  8s 2 4 mph 1019.5mb 62f 69f
9:30am  -   -   -  2 7 mph 1019.5mb 62f -
9:20am  -   -   -  2 4 mph 1019.5mb 62f 67f
9:10am  -   -   -  2 9 mph 1019.4mb 62f 67f
9:00am  -   -   -  2 7 mph 1019.6mb 62f 67f
8:50am 4.5ft 12s 8s  -  2 mph 1019.4mb 62f 66f
8:40am  -   -   -  2 4 mph 1019.3mb 62f 65f
8:30am  -   -   -  2 7 mph 1019.3mb 61f 65f
8:20am  -   -   -   -  4 mph 1019.1mb - 64f
8:10am  -   -   -  2 4 mph 1019mb 61f 64f
8:00am  -   -   -  4 9 mph 1018.9mb 61f 64f
7:50am 5ft 12s 8s 2 4 mph 1018.8mb 61f 63f
7:40am  -   -   -  4 7 mph 1019mb 61f 63f
7:30am  -   -   -  4 7 mph 1018.6mb 61f 63f
7:20am  -   -   -  2 4 mph 1018.6mb 61f 63f
7:10am  -   -   -  2 4 mph 1018.7mb - 62f
7:00am  -   -   -  2 4 mph 1018.8mb 61f 62f
6:50am 4.5ft 12s 8s 2 7 mph 1018.8mb 61f 62f
6:40am 4.5ft  -  8s 4 7 mph 1018.7mb 61f 62f
6:30am  -   -   -  4 4 mph 1018.5mb 61f 62f
6:20am  -   -   -  4 4 mph 1018.5mb 61f 62f
6:10am  -   -   -  2 4 mph 1018.4mb 61f 62f
6:00am  -   -   -  2 9 mph 1018.4mb - 62f
5:50am 4ft 13s 8s 2 7 mph 1018.2mb 62f 62f
5:40am 4ft  -  8s 2 7 mph 1018.2mb 62f 63f
5:30am  -   -   -  2 4 mph 1018.2mb 62f 63f
5:20am  -   -   -  2 4 mph 1018.2mb 62f 63f
5:10am  -   -   -  2 4 mph 1018.2mb 62f 63f
5:00am  -   -   -  2 4 mph 1018.2mb - 64f
4:50am 4ft 12s 8s 2 4 mph 1018.3mb 62f 64f
4:40am 4ft  -  8s 4 4 mph 1018.3mb 62f 63f
4:30am  -   -   -  4 7 mph 1018.2mb 62f 63f
4:20am  -   -   -  4 7 mph 1018.2mb 62f 63f
4:10am  -   -   -  4 7 mph 1018.1mb 63f 63f
4:00am  -   -   -  4 7 mph 1018.3mb 63f 63f
3:50am 4ft 13s 8s 2 7 mph 1018.3mb 63f 63f
3:40am 4ft  -  8s 4 7 mph 1018.3mb 63f 63f
3:30am  -   -   -  2 4 mph 1018.3mb 63f 63f
3:20am  -   -   -  2 2 mph 1018.3mb 63f 63f
3:10am  -   -   -  2 4 mph 1018.4mb 63f 63f
3:00am  -   -   -  2 2 mph 1018.5mb - 63f
2:50am 4.5ft 13s 7s 2 4 mph 1018.6mb 63f 63f
2:40am 4.5ft  -  7s 2 4 mph 1018.7mb - 63f
2:30am  -   -   -  2 2 mph 1018.6mb 63f 63f
2:20am  -   -   -  2 4 mph 1018.7mb 63f 63f
2:10am  -   -   -  2 2 mph 1018.5mb 63f 63f
2:00am  -   -   -   -  2 mph 1018.8mb 63f 63f
1:50am 4.5ft 13s 7s 2 4 mph 1018.8mb 63f 63f
1:40am 4.5ft  -  7s  -  2 mph 1018.7mb 63f 63f
1:30am  -   -   -   -  2 mph 1018.8mb 63f 63f
1:20am  -   -   -   -  4 mph 1018.9mb 63f 63f
1:10am  -   -   -  2 4 mph 1019mb 63f 63f
1:00am  -   -   -  2 4 mph 1019.1mb 63f 63f
12:50am 4.5ft  -  7s 4 7 mph 1018.9mb 63f 63f
12:40am  -   -   -  4 4 mph 1019mb 63f 63f
12:30am  -   -   -  2 4 mph 1019mb 63f 63f
12:20am  -   -   -  4 4 mph 1019mb 63f 63f
12:10am  -   -   -  4 4 mph 1019mb 63f 63f
12:00am  -   -   -  4 7 mph 1019.1mb 63f 63f
Sun 10/22 11:50pm 5ft 13s 7s 4 7 mph 1019mb 63f 63f
11:40pm  -   -   -  4 7 mph 1019.1mb 63f 63f
11:30pm  -   -   -  4 4 mph 1019.1mb 63f 63f
11:20pm  -   -   -  4 7 mph 1019.1mb 63f 63f
11:10pm  -   -   -  4 7 mph 1019mb 63f 63f
11:00pm  -   -   -  4 7 mph 1019mb 63f 63f
10:50pm 5ft 13s 7s 4 7 mph 1019.1mb 63f 63f
10:40pm 5ft  -  7s 4 7 mph 1019.2mb 63f 63f
10:30pm  -   -   -  7 9 mph 1019.1mb 63f 63f
10:20pm  -   -   -  7 9 mph 1019.1mb 63f 63f
10:10pm  -   -   -  7 9 mph 1019mb 63f 62f
10:00pm  -   -   -  7 9 mph 1018.9mb 63f 62f
9:50pm 5ft 13s 7s 7 9 mph 1019mb 63f 62f
9:40pm  -   -   -  7 9 mph 1019.1mb - 62f
9:30pm  -   -   -  7 9 mph 1018.9mb 63f 62f
9:20pm  -   -   -  7 9 mph 1019mb 63f 62f
9:10pm  -   -   -  7 9 mph 1018.9mb 63f 62f
9:00pm  -   -   -  7 9 mph 1019mb 63f 62f
8:50pm 5ft 13s 7s 9 11 mph 1018.8mb 63f 62f
8:40pm  -   -   -  9 11 mph 1018.8mb 63f 62f
8:30pm  -   -   -  9 11 mph 1018.8mb - 62f
8:20pm  -   -   -  9 13 mph 1018.8mb 63f 62f
8:10pm  -   -   -  9 11 mph 1018.8mb 63f 62f
8:00pm  -   -   -  9 11 mph 1018.8mb - 62f
7:50pm 6ft 12s 8s 7 9 mph 1018.9mb 63f 62f
7:40pm  -   -   -  9 11 mph 1018.9mb 63f 63f
7:30pm  -   -   -  9 11 mph 1018.9mb 63f 63f
7:20pm  -   -   -  9 11 mph 1018.7mb 63f 63f
7:10pm  -   -   -  9 11 mph 1018.7mb - 63f
7:00pm  -   -   -  9 11 mph 1018.7mb 63f 63f
6:50pm 5ft 13s 8s 9 11 mph 1018.8mb 63f 63f
6:40pm 5ft  -  8s 9 13 mph 1018.8mb 63f 63f
6:30pm  -   -   -  11 13 mph 1018.7mb 63f 63f
6:20pm  -   -   -  11 13 mph 1018.7mb 63f 63f
6:10pm  -   -   -  9 13 mph 1018.8mb 63f 63f
6:00pm  -   -   -  9 13 mph 1018.7mb 63f 63f
5:50pm 5ft 13s 7s 9 11 mph 1018.7mb 63f 63f
5:40pm 5ft  -  7s 9 13 mph 1018.8mb 63f 64f
5:30pm  -   -   -  11 13 mph 1018.8mb 63f 64f
5:20pm  -   -   -  9 11 mph 1018.8mb 63f 64f
5:10pm  -   -   -  9 13 mph 1018.7mb 64f 64f
5:00pm  -   -   -  11 13 mph 1018.6mb - 64f
4:50pm 4.5ft 14s 8s 11 13 mph 1018.6mb - 64f
4:40pm 4.5ft  -  8s 11 16 mph 1018.7mb 64f 64f
4:30pm  -   -   -  11 13 mph 1018.8mb 64f 64f
4:20pm  -   -   -  9 11 mph 1018.9mb 64f 64f
4:10pm  -   -   -  7 11 mph 1019.1mb 64f 65f
4:00pm  -   -   -  7 9 mph 1019.1mb 64f 65f
3:50pm 4.5ft 14s 7s 4 7 mph 1019.2mb 64f 65f
3:40pm 4.5ft  -  7s 7 7 mph 1019.2mb 64f 65f
3:30pm  -   -   -  4 7 mph 1019.2mb 64f 65f
3:20pm  -   -   -  4 7 mph 1019.3mb 64f 65f
3:10pm  -   -   -  7 9 mph 1019.3mb 64f 65f
3:00pm  -   -   -  7 9 mph 1019.3mb 64f 65f
2:50pm 4.5ft 13s 7s 7 9 mph 1019.3mb 64f 64f
2:40pm  -   -   -  7 11 mph 1019.5mb 64f 64f
2:30pm  -   -   -  7 9 mph 1019.5mb 64f -
2:20pm  -   -   -  7 9 mph 1019.6mb 64f 64f
2:10pm  -   -   -  4 7 mph 1019.7mb 64f 64f
2:00pm  -   -   -  4 7 mph 1019.8mb 64f 64f
1:50pm 4.5ft 13s 7s 4 9 mph 1019.7mb 64f 64f
1:40pm 4.5ft  -  7s 7 9 mph 1019.8mb 64f 64f
1:30pm  -   -   -  7 9 mph 1019.8mb 63f 64f
1:20pm  -   -   -  7 9 mph 1020mb 63f 64f
1:10pm  -   -   -  7 9 mph 1020.2mb 64f 64f
1:00pm  -   -   -  7 9 mph 1020.3mb 63f 64f
12:50pm 5ft 14s 7s 4 7 mph 1020.5mb 63f 64f
12:40pm  -   -   -  2 4 mph 1020.4mb 63f 64f
12:30pm  -   -   -  2 4 mph 1020.6mb 63f 64f
12:20pm  -   -   -  2 4 mph 1020.6mb 63f 63f
12:10pm  -   -   -  2 4 mph 1020.6mb 63f 63f
12:00pm  -   -   -  2 4 mph 1020.8mb 63f 63f
11:50am 5ft 14s 7s 2 4 mph 1020.9mb 63f 63f
11:40am  -   -   -  2 4 mph 1021mb 63f 63f
11:30am  -   -   -  4 7 mph 1021.1mb 63f 63f
11:20am  -   -   -  4 7 mph 1021.2mb 62f 63f
11:10am  -   -   -  4 7 mph 1021.2mb 62f 63f
11:00am  -   -   -  4 7 mph 1021.1mb 62f 63f
10:50am 5ft 14s 7s 4 7 mph 1021.1mb 62f 63f
10:40am 5ft  -  7s 4 7 mph 1021.1mb 62f 63f
10:30am  -   -   -  4 7 mph 1021.1mb - 62f
10:20am  -   -   -  4 7 mph 1021.1mb 62f -
10:10am  -   -   -  4 7 mph 1021.1mb 62f 62f
10:00am  -   -   -  4 7 mph 1021.2mb 62f 62f
9:50am 5ft 13s 7s 4 7 mph 1021.2mb 62f 62f
9:40am  -   -   -  4 7 mph 1021.3mb 62f 62f
9:30am  -   -   -  4 7 mph 1021.2mb 62f 62f
9:20am  -   -   -  7 9 mph 1021.2mb 62f 62f
9:10am  -   -   -  9 11 mph 1021.1mb 62f 62f
9:00am  -   -   -  9 11 mph 1020.9mb 62f 62f
8:50am 5.5ft 13s 8s 9 11 mph 1020.8mb 62f 62f
8:40am 5.5ft  -  8s 9 11 mph 1020.8mb 62f 62f
8:30am  -   -   -  9 11 mph 1020.8mb 62f 62f
8:20am  -   -   -  9 9 mph 1020.7mb 62f 62f
8:10am  -   -   -  7 9 mph 1020.7mb 62f 63f
8:00am  -   -   -  7 9 mph 1020.5mb 62f 63f
7:50am 5ft 14s 8s 7 7 mph 1020.4mb 62f 63f
7:40am 5ft  -  8s 7 9 mph 1020.3mb 62f 62f
7:30am  -   -   -  9 11 mph 1020.1mb 62f 62f
7:20am  -   -   -  9 11 mph 1020mb 62f 62f
7:10am  -   -   -  9 11 mph 1020mb 62f 62f
7:00am  -   -   -  9 11 mph 1020mb 62f 62f
6:50am 5.5ft 14s 8s 7 9 mph 1019.9mb 62f 62f
6:40am  -   -   -  4 9 mph 1019.9mb 62f 62f
6:30am  -   -   -  4 7 mph 1020mb 62f 62f
6:20am  -   -   -  4 9 mph 1019.9mb 63f 62f
6:10am  -   -   -  4 7 mph 1019.9mb 63f 62f
6:00am  -   -   -  7 9 mph 1019.9mb - 62f
5:50am 5ft 12s 8s 4 9 mph 1019.9mb 63f 62f
5:40am  -   -   -  4 7 mph 1019.9mb 63f 62f
5:30am  -   -   -  7 9 mph 1019.8mb 63f 62f
5:20am  -   -   -  7 9 mph 1019.9mb 63f -
5:10am  -   -   -  7 9 mph 1019.8mb 63f 62f
5:00am  -   -   -  7 9 mph 1019.8mb 63f 62f
4:50am 5ft  -  8s 7 9 mph 1019.8mb 63f -
4:40am  -   -   -  9 11 mph 1019.7mb 63f 62f
4:30am  -   -   -  9 11 mph 1019.8mb 63f 62f
4:20am  -   -   -  9 11 mph 1019.9mb 63f 62f
4:10am  -   -   -  7 11 mph 1019.9mb 63f 62f
4:00am  -   -   -  7 9 mph 1019.8mb 63f 62f
3:50am  -   -   -  7 9 mph 1019.8mb 62f 62f
3:40am  -   -   -  7 9 mph 1019.8mb 62f 62f
3:30am  -   -   -   -  mph 1019.8mb 62f -
3:20am  -   -   -  7 9 mph 1019.9mb 62f 62f
3:10am  -   -   -  7 11 mph 1019.9mb 62f 62f
3:00am  -   -   -  7 9 mph 1020mb 62f 62f
2:50am 5ft 14s 7s 7 9 mph 1020mb 62f 62f
2:40am 5ft  -  7s 4 7 mph 1020mb 62f 62f
2:30am  -   -   -  4 7 mph 1020.1mb 62f 62f
2:20am  -   -   -  4 7 mph 1020.1mb 62f 62f
2:10am  -   -   -  7 9 mph 1020.1mb 62f 62f
2:00am  -   -   -  7 9 mph 1020.1mb 62f 62f
1:50am 6ft 14s 7s 7 9 mph 1020.2mb 62f 62f
1:40am 6ft  -  7s 7 11 mph 1020.2mb 62f 62f
1:30am  -   -   -  7 9 mph 1020.2mb 62f 62f
1:20am  -   -   -  7 11 mph 1020.2mb 62f 62f
1:10am  -   -   -  9 11 mph 1020.3mb - 62f
1:00am  -   -   -  7 11 mph 1020.3mb 62f 62f
12:50am 6ft 14s 7s 7 11 mph 1020.2mb 62f 62f
12:40am  -   -   -  7 9 mph 1020.2mb 62f 62f
12:30am  -   -   -  9 11 mph 1020.2mb 62f 62f
12:20am  -   -   -  9 11 mph 1020.2mb - 62f
12:10am  -   -   -  7 9 mph 1020.2mb 62f 62f
12:00am  -   -   -  7 9 mph 1020.1mb - 62f
Sat 10/21 11:50pm 6ft 12s 7s 4 7 mph 1020.2mb 62f 62f
11:40pm  -   -   -  4 7 mph 1020.2mb 62f 63f
11:30pm  -   -   -  7 9 mph 1020.1mb 62f 63f
11:20pm  -   -   -  4 7 mph 1020.1mb 62f 62f
11:10pm  -   -   -  7 9 mph 1020.2mb 62f 62f
11:00pm  -   -   -  4 7 mph 1020.2mb 62f 62f
10:50pm 6ft 13s 7s 7 9 mph 1020.2mb 62f 62f
10:40pm 6ft  -  7s 7 9 mph 1020.1mb 62f 63f
10:30pm  -   -   -  4 7 mph 1020.2mb 62f 63f
10:20pm  -   -   -  4 9 mph 1020.2mb 62f 63f
10:10pm  -   -   -  7 9 mph 1020.2mb 62f 62f
10:00pm  -   -   -  7 9 mph 1020mb 62f 62f
9:50pm 6.5ft 13s 7s 4 9 mph 1020mb 62f 62f
9:40pm 6.5ft  -  7s 4 9 mph 1020mb 62f 62f
9:30pm  -   -   -  7 9 mph 1019.8mb - 62f
9:20pm  -   -   -  7 9 mph 1019.8mb 62f 62f
9:10pm  -   -   -  7 9 mph 1019.8mb 62f 62f
9:00pm  -   -   -  7 9 mph 1019.7mb 62f 62f
8:50pm 6ft 14s 7s 7 9 mph 1019.6mb 62f 62f
8:40pm  -   -   -  9 11 mph 1019.5mb 62f 62f
8:30pm  -   -   -  9 13 mph 1019.5mb 62f 62f
8:20pm  -   -   -  9 13 mph 1019.5mb 62f 62f
8:10pm  -   -   -  11 13 mph 1019.5mb - 62f
8:00pm  -   -   -  13 16 mph 1019.3mb - 62f
7:50pm 6ft 13s 7s 13 18 mph 1019.2mb 62f 62f
7:40pm  -   -   -  13 18 mph 1019.1mb 62f 62f
7:30pm  -   -   -  13 18 mph 1019mb 62f 62f
7:20pm  -   -   -  13 16 mph 1019mb 63f 62f
7:10pm  -   -   -  11 16 mph 1018.8mb 63f 62f
7:00pm  -   -   -  13 18 mph 1018.6mb 63f 62f
6:50pm 6.5ft 13s 7s 13 16 mph 1018.6mb 63f 62f
6:40pm  -   -   -  11 16 mph 1018.6mb - 62f
6:30pm  -   -   -  9 11 mph 1018.5mb 63f 62f
6:20pm  -   -   -  7 7 mph 1018.6mb 63f 62f
6:10pm  -   -   -  4 9 mph 1018.5mb 63f 63f
6:00pm  -   -   -  4 9 mph 1018.4mb 63f 62f
5:50pm 6.5ft 14s 7s 7 9 mph 1018.4mb 63f 62f
5:40pm 6.5ft  -  7s 9 11 mph 1018.3mb 63f 63f
5:30pm  -   -   -  9 11 mph 1018.3mb 63f 63f
5:20pm  -   -   -  9 11 mph 1018.2mb 63f -
5:10pm  -   -   -  9 11 mph 1018.4mb 63f 63f
5:00pm  -   -   -  9 13 mph 1018.4mb 63f 63f
4:50pm 7ft 15s 8s 9 13 mph 1018.3mb 63f 63f
4:40pm 7ft  -  8s 11 13 mph 1018.4mb 63f 63f
4:30pm  -   -   -  9 11 mph 1018.4mb 63f 63f
4:20pm  -   -   -  7 11 mph 1018.4mb 63f 63f
4:10pm  -   -   -  4 9 mph 1018.4mb 63f 63f
4:00pm  -   -   -  4 7 mph 1018.3mb 63f 63f
3:50pm 6.5ft 15s 7s 4 7 mph 1018.3mb 63f 63f
3:40pm  -   -   -  4 7 mph 1018.2mb 63f 63f
3:30pm  -   -   -  4 7 mph 1018.4mb - 62f
3:20pm  -   -   -  4 9 mph 1018.3mb 63f 62f
3:10pm  -   -   -  9 11 mph 1018.4mb 63f 62f
3:00pm  -   -   -  9 11 mph 1018.5mb - 62f
2:50pm 5.5ft 15s 7s 9 11 mph 1018.4mb 63f 62f
2:40pm 5.5ft  -  7s 9 11 mph 1018.4mb 63f 62f
2:30pm  -   -   -  11 13 mph 1018.6mb 63f 62f
2:20pm  -   -   -  11 13 mph 1018.5mb 63f 62f
2:10pm  -   -   -  11 16 mph 1018.6mb 63f 62f
2:00pm  -   -   -  11 16 mph 1018.6mb 63f 62f
1:50pm 6ft 15s 7s 11 16 mph 1018.6mb 63f 62f
1:40pm 6ft  -  7s 9 11 mph 1018.6mb 63f 62f
1:30pm  -   -   -  9 11 mph 1018.8mb 64f 62f
1:20pm  -   -   -  7 9 mph 1019mb 64f 62f
1:10pm  -   -   -  4 7 mph 1019.1mb 64f 63f
1:00pm  -   -   -  2 4 mph 1019.1mb 63f 62f
12:50pm 5.5ft 13s 7s 4 7 mph 1019.3mb 63f 62f
12:40pm 5.5ft  -  7s 4 9 mph 1019.6mb 63f 62f
12:30pm  -   -   -  7 11 mph 1019.4mb 63f 62f
12:20pm  -   -   -  4 7 mph 1019.5mb 63f 62f
12:10pm  -   -   -  2 4 mph 1019.5mb 63f 62f
12:00pm  -   -   -  4 7 mph 1019.5mb - 62f
11:50am 5.5ft 15s 7s 4 7 mph 1019.5mb 63f 62f
11:40am  -   -   -  4 7 mph 1019.4mb 62f 63f
11:30am  -   -   -  2 4 mph 1019.5mb 62f 63f
11:20am  -   -   -  4 7 mph 1019.5mb 62f 63f
11:10am  -   -   -  4 4 mph 1019.5mb 62f 63f
11:00am  -   -   -  2 4 mph 1019.5mb 62f 63f
10:50am 5.5ft 14s 7s 2 4 mph 1019.4mb 62f 62f
10:40am 5.5ft  -  7s 2 4 mph 1019.4mb 62f 62f
10:30am  -   -   -  2 7 mph 1019.3mb 62f 62f
10:20am  -   -   -  2 4 mph 1019.4mb 62f 62f
10:10am  -   -   -  2 4 mph 1019.4mb 62f 62f
10:00am  -   -   -  2 7 mph 1019.3mb 62f 62f
9:50am 5.5ft 14s 7s 2 4 mph 1019.1mb 62f 62f
9:40am 5.5ft  -  7s 4 7 mph 1019mb 62f 62f
9:30am  -   -   -  2 4 mph 1019mb 62f 62f
9:20am  -   -   -  4 7 mph 1019mb 62f 62f
9:10am  -   -   -  4 7 mph 1018.7mb 62f 62f
9:00am  -   -   -  4 7 mph 1018.6mb 62f 62f
8:50am 6ft 14s 6s 4 7 mph 1018.3mb 62f 61f
8:40am  -   -   -  4 7 mph 1018.2mb 62f 61f
8:30am  -   -   -  7 7 mph 1018.1mb 62f 60f
8:20am  -   -   -  7 9 mph 1017.9mb 62f 60f
8:10am  -   -   -  9 11 mph 1017.6mb 62f 60f
8:00am  -   -   -  11 13 mph 1017.5mb - 60f
7:50am 6.5ft 16s 6s 11 16 mph 1017.3mb 62f 60f
7:40am 6.5ft  -  6s 13 18 mph 1017.3mb 62f 60f
7:30am  -   -   -  16 20 mph 1017.3mb 62f 60f
7:20am  -   -   -  16 20 mph 1017.1mb 62f 60f
7:10am  -   -   -  13 18 mph 1017mb 62f 61f
7:00am  -   -   -  13 18 mph 1017mb 62f 61f
6:50am 6ft 16s 6s 11 16 mph 1017mb 62f 61f
6:40am 6ft  -  6s 11 13 mph 1017mb 62f 61f
6:30am  -   -   -  13 18 mph 1016.9mb 62f 61f
6:20am  -   -   -  16 20 mph 1016.9mb 62f 61f
6:10am  -   -   -  16 18 mph 1016.9mb - 61f
6:00am  -   -   -  16 20 mph 1016.8mb - 61f
5:50am 6ft  -  6s 16 20 mph 1016.6mb 62f -
5:40am 6ft  -  6s 16 22 mph 1016.7mb 62f 61f
5:30am  -   -   -  16 20 mph 1016.4mb 62f 61f
5:20am  -   -   -  16 20 mph 1016.5mb 62f 61f
5:10am  -   -   -  16 18 mph 1016.5mb 62f 61f
5:00am  -   -   -  16 20 mph 1016.4mb 62f 61f
4:50am 6ft 16s 7s 16 20 mph 1016.4mb 62f 61f
4:40am  -   -   -  16 20 mph 1016.4mb 62f 61f
4:30am  -   -   -  18 22 mph 1016.2mb 62f 61f
4:20am  -   -   -  18 22 mph 1016.3mb 61f 61f
4:10am  -   -   -  20 25 mph 1016.3mb 61f 61f
4:00am  -   -   -  20 25 mph 1016.1mb 61f 61f
3:50am 6ft 15s 7s 18 25 mph 1016mb 61f 61f
3:40am 6ft  -  7s 16 20 mph 1015.9mb 61f 61f
3:30am  -   -   -  16 20 mph 1016.2mb 61f 61f
3:20am  -   -   -  18 20 mph 1016.4mb 61f 61f
3:10am  -   -   -  16 20 mph 1016.5mb 61f 61f
3:00am  -   -   -  13 18 mph 1016.5mb 62f 61f
2:50am 6ft 14s 6s 13 18 mph 1016.5mb 62f 61f
2:40am 6ft  -  6s 13 18 mph 1016.4mb 62f 62f
2:30am  -   -   -  13 16 mph 1016.6mb 62f 62f
2:20am  -   -   -  16 18 mph 1016.6mb 62f 62f
2:10am  -   -   -  16 20 mph 1016.5mb 62f 62f
2:00am  -   -   -  16 18 mph 1016.7mb 62f 61f
1:50am 7ft 14s 7s 16 20 mph 1016.6mb 62f 61f
1:40am 7ft  -  7s 18 22 mph 1016.4mb - 61f
1:30am  -   -   -  18 22 mph 1016.4mb 62f 61f
1:20am  -   -   -  18 22 mph 1016.5mb 62f 62f
1:10am  -   -   -  18 20 mph 1016.5mb 62f 62f
1:00am  -   -   -  18 22 mph 1016.6mb 62f 62f
12:50am 6ft 16s 6s 20 25 mph 1016.4mb 62f 62f
12:40am 6ft  -  6s 18 25 mph 1016.4mb 62f 62f
12:30am  -   -   -  18 20 mph 1016.3mb 62f 61f
12:20am  -   -   -  18 22 mph 1016.2mb 62f 61f
12:10am  -   -   -  20 25 mph 1016.2mb 62f 61f
12:00am  -   -   -  18 25 mph 1016.3mb 62f 61f
Fri 10/20 11:50pm 7ft 17s 6s 20 27 mph 1016.1mb 62f 61f
11:40pm 7ft  -  6s 22 27 mph 1016.3mb 62f 60f
11:30pm  -   -   -  22 27 mph 1016.1mb 62f 60f
11:20pm  -   -   -  20 27 mph 1016.1mb 62f 60f
11:10pm  -   -   -  20 27 mph 1016.1mb 62f 60f
11:00pm  -   -   -  22 27 mph 1016.1mb 62f 60f
10:50pm 7.5ft 6s 6s 22 29 mph 1016mb 62f 60f
10:40pm  -   -   -  22 29 mph 1015.9mb 62f 61f
10:30pm  -   -   -  25 31 mph 1015.7mb 62f 61f
10:20pm  -   -   -  27 36 mph 1015.5mb 63f 61f
10:10pm  -   -   -  27 31 mph 1015.4mb 62f 61f
10:00pm  -   -   -  27 31 mph 1015.4mb 63f 61f
9:50pm 7.5ft 6s 6s 25 31 mph 1015.5mb 63f 61f
9:40pm  -   -   -  27 34 mph 1015.5mb 63f 60f
9:30pm  -   -   -  25 34 mph 1015.4mb 63f 60f
9:20pm  -   -   -  27 34 mph 1015.4mb 63f 60f
9:10pm  -   -   -  27 31 mph 1015.6mb 63f 60f
9:00pm  -   -   -  27 34 mph 1015.3mb 63f 60f
8:50pm 8ft 6s 6s 27 34 mph 1015.3mb - 61f
8:40pm 8ft  -  6s 27 34 mph 1015.3mb 63f 61f
8:30pm  -   -   -  29 38 mph 1015mb 63f 61f
8:20pm  -   -   -  31 40 mph 1014.5mb 63f 61f
8:10pm  -   -   -  34 40 mph 1014.3mb 63f 61f
8:00pm  -   -   -  34 43 mph 1014.2mb 63f 61f
7:50pm 8.5ft 7s 6s 34 43 mph 1014.1mb 63f 62f
7:40pm 8.5ft  -  6s 34 43 mph 1014.2mb 63f 62f
7:30pm  -   -   -  34 40 mph 1014.1mb 63f 62f
7:20pm  -   -   -  34 40 mph 1014.4mb 63f 62f
7:10pm  -   -   -  31 43 mph 1014.5mb 63f 62f
7:00pm  -   -   -  34 43 mph 1014.1mb 63f 62f
6:50pm 8ft 6s 6s 34 43 mph 1014mb 64f 62f
6:40pm  -   -   -  34 43 mph 1013.8mb 64f 62f
6:30pm  -   -   -  34 43 mph 1013.8mb 64f 63f
6:20pm  -   -   -  34 40 mph 1013.6mb 64f 63f
6:10pm  -   -   -  34 40 mph 1013.4mb 64f 63f
6:00pm  -   -   -  34 43 mph 1013.3mb - 63f
5:50pm 8.5ft  -  6s 34 43 mph 1013.2mb 64f 63f
5:40pm  -   -   -  34 43 mph 1013.4mb - 63f
5:30pm  -   -   -  34 43 mph 1013.3mb 64f 63f
5:20pm  -   -   -  34 45 mph 1013.4mb 64f 63f
5:10pm  -   -   -  36 43 mph 1013.3mb 64f 63f
5:00pm  -   -   -  36 45 mph 1013.4mb 64f 64f
4:50pm 7.5ft 17s 5s 31 40 mph 1013.3mb 64f 64f
4:40pm 7.5ft  -  5s 31 40 mph 1013.2mb 64f 64f
4:30pm  -   -   -  29 36 mph 1013.4mb 64f 64f
4:20pm  -   -   -  31 38 mph 1013.5mb 64f 64f
4:10pm  -   -   -  29 38 mph 1013.4mb 64f 64f
4:00pm  -   -   -  29 38 mph 1013.3mb 64f 64f
3:50pm 8ft 17s 6s 29 36 mph 1013.4mb 64f 64f
3:40pm  -   -   -  29 36 mph 1013.4mb 64f 64f
3:30pm  -   -   -  29 36 mph 1013.4mb 64f 64f
3:20pm  -   -   -  27 34 mph 1013.2mb 64f 64f
3:10pm  -   -   -  27 36 mph 1013.1mb 64f 64f
3:00pm  -   -   -  29 34 mph 1013.1mb 64f 64f
2:50pm 7ft 17s 6s 29 36 mph 1013mb 64f 64f
2:40pm 7ft  -  6s 29 36 mph 1013mb - 64f
2:30pm  -   -   -  27 36 mph 1013.1mb 64f 64f
2:20pm  -   -   -  27 34 mph 1013.2mb 64f 64f
2:10pm  -   -   -  29 36 mph 1013.4mb 64f 64f
2:00pm  -   -   -  29 34 mph 1013.4mb - 64f
1:50pm 6ft 17s 5s 27 34 mph 1013.5mb 64f 64f
1:40pm 6ft  -  5s 27 34 mph 1013.7mb 64f 64f
1:30pm  -   -   -  27 34 mph 1013.7mb - 64f
1:20pm  -   -   -  27 34 mph 1013.7mb 64f 64f
1:10pm  -   -   -  25 31 mph 1013.8mb 64f 64f
1:00pm  -   -   -  25 31 mph 1013.8mb 64f 64f
12:50pm 5.5ft 5s 5s 25 31 mph 1014mb 64f 64f
12:40pm 5.5ft  -  5s 27 31 mph 1014.2mb 64f 64f
12:30pm  -   -   -  27 31 mph 1014.2mb 64f 63f
12:20pm  -   -   -  27 31 mph 1014.3mb 64f 63f
12:10pm  -   -   -  27 34 mph 1014.2mb 63f 63f
12:00pm  -   -   -  27 34 mph 1014.3mb 63f 62f
11:50am 5ft 5s 5s 27 34 mph 1014.3mb 63f 63f
11:40am 5ft  -  5s 27 34 mph 1014mb 63f 63f
11:30am  -   -   -  27 31 mph 1014.2mb 63f 63f
11:20am  -   -   -  27 34 mph 1014.4mb 63f 63f
11:10am  -   -   -  27 34 mph 1014.3mb 63f 63f
11:00am  -   -   -  27 34 mph 1014.5mb 63f 62f
10:50am 4.5ft 5s 4s 27 34 mph 1014.4mb 63f 62f
10:40am 4.5ft  -  4s 27 31 mph 1014.7mb 63f 62f
10:30am  -   -   -  25 34 mph 1014.7mb 63f 62f
10:20am  -   -   -  25 31 mph 1014.7mb 63f 62f
10:10am  -   -   -  25 29 mph 1014.9mb 63f 62f
10:00am  -   -   -  27 31 mph 1014.8mb - 62f
9:50am 3.5ft 4s 4s 27 31 mph 1014.9mb 63f 62f
9:40am  -   -   -  25 29 mph 1014.8mb 63f 62f
9:30am  -   -   -  22 29 mph 1014.8mb 63f 63f
9:20am  -   -   -  22 27 mph 1015.1mb 63f 62f
9:10am  -   -   -  25 29 mph 1014.9mb 63f 62f
9:00am  -   -   -  22 29 mph 1014.7mb 63f 62f
8:50am 4ft 5s 4s 20 27 mph 1014.6mb 63f 63f
7:50am 4.5ft 5s 4s 22 29 mph 1014.1mb 63f 63f
7:20am  -   -   -  22 27 mph 1014.4mb 63f 63f
7:10am  -   -   -  25 29 mph 1014.5mb 63f 63f
7:00am  -   -   -  25 29 mph 1014.5mb 63f 63f
6:50am 4.5ft 5s 5s 22 27 mph 1014.5mb 63f 63f
6:40am  -   -   -  20 27 mph 1014.6mb 63f 63f
6:30am  -   -   -  22 27 mph 1014.7mb 63f 63f
6:20am  -   -   -  22 27 mph 1014.7mb 62f 63f
6:10am  -   -   -  20 27 mph 1014.7mb 62f 63f
6:00am  -   -   -  20 25 mph 1014.7mb 62f -
5:50am 4.5ft 5s 4s 22 27 mph 1014.4mb 62f 63f
5:40am 4.5ft  -  4s 22 29 mph 1014.5mb 62f 63f
5:30am  -   -   -  25 29 mph 1014.5mb 62f 63f
5:20am  -   -   -  22 29 mph 1014.3mb 62f 63f
5:10am  -   -   -  22 27 mph 1014.1mb 62f 63f
5:00am  -   -   -  22 27 mph 1013.9mb 62f 63f
4:50am 4ft 5s 4s 20 25 mph 1013.8mb 62f 63f
4:40am 4ft  -  4s 20 25 mph 1013.7mb 62f 63f
4:30am  -   -   -  22 27 mph 1013.8mb 62f 63f
4:20am  -   -   -  20 25 mph 1013.8mb 62f 64f
4:10am  -   -   -  22 27 mph 1013.7mb 62f 64f
4:00am  -   -   -  20 27 mph 1013.8mb 62f 64f
3:50am 4ft 5s 4s 22 27 mph 1013.8mb 62f 63f
3:40am 4ft  -  4s 20 25 mph 1013.7mb 62f 63f
3:30am  -   -   -  20 27 mph 1013.7mb - 63f
3:20am  -   -   -  22 27 mph 1013.6mb 63f 63f
3:10am  -   -   -  22 29 mph 1013.7mb 63f 63f
3:00am  -   -   -  22 29 mph 1013.6mb 63f 63f
2:50am 4ft 5s 5s 20 25 mph 1013.6mb 63f 63f
2:40am  -   -   -  20 25 mph 1013.8mb 63f 63f
2:30am  -   -   -  20 27 mph 1013.9mb 63f 64f
2:20am  -   -   -  18 20 mph 1013.9mb 63f 64f
2:10am  -   -   -  18 22 mph 1014mb 64f 64f
2:00am  -   -   -  20 27 mph 1013.9mb 64f 64f
1:50am 4.5ft 5s 5s 20 25 mph 1013.9mb 64f 64f
1:40am  -   -   -  20 25 mph 1013.9mb 64f 64f
1:30am  -   -   -  22 27 mph 1014mb 64f 64f
1:20am  -   -   -  22 29 mph 1013.9mb 64f 63f
1:10am  -   -   -  25 29 mph 1013.9mb 64f 62f
1:00am  -   -   -  25 29 mph 1013.8mb 64f 62f
12:50am 4.5ft 6s 5s 25 29 mph 1013.7mb 64f 62f
12:40am 4.5ft  -  5s 25 31 mph 1013.9mb 64f 62f